Terminal Aerodrome Forecast
Issued by NWS Cleveland, OH

Home | Current Version | Previous Version | Text Only | Print | Product List | Glossary On
Versions: 1 2 3 4 5 6 7 8 9 10 11 12 13 14 15 16
256
FTUS41 KCLE 200532
TAFCAK
TAF
KCAK 200532Z 2006/2106 08003KT P6SM SCT040 BKN100
     FM201000 17003KT 3SM BR SCT025 BKN100
      TEMPO 2010/2013 1 1/2SM BR BKN008
     FM201400 23005KT P6SM BKN050
     FM202000 28005KT P6SM VCTS SCT025CB OVC040
     FM202300 35004KT P6SM SCT050 BKN080=

USA.gov is the U.S. government's official web portal to all federal, state and local government web resources and services.